Time;durP1;ratioP1;P1;durP2;ratioP2;P2;SDS_P1;SDS_P2;PMS_P1;PMS_P2;Temp;Humidity;BMP_temperature;BMP_pressure;BME280_temperature;BME280_humidity;BME280_pressure;Samples;Min_cycle;Max_cycle;Signal;HPM_P1;HPM_P2
2021/11/19 00:01:13;;;;;;;10.02;8.63;;;2.40;99.90;;;;;;5130737;27;20286;-83
2021/11/19 00:03:40;;;;;;;17.00;9.45;;;;;;;;;;5132408;27;20247;-83
2021/11/19 00:06:09;;;;;;;9.48;7.55;;;2.70;99.90;;;;;;5131616;27;20222;-84
2021/11/19 00:08:36;;;;;;;11.15;8.23;;;;;;;;;;5131505;27;20249;-83
2021/11/19 00:11:06;;;;;;;12.43;8.05;;;2.50;99.90;;;;;;5129801;27;20265;-84
2021/11/19 00:13:34;;;;;;;13.38;8.70;;;;;;;;;;5131596;27;20739;-83
2021/11/19 00:16:01;;;;;;;11.75;7.90;;;2.60;99.90;;;;;;5129833;27;20653;-84
2021/11/19 00:18:28;;;;;;;13.05;8.85;;;2.90;99.90;;;;;;5130918;27;20306;-84
2021/11/19 00:20:56;;;;;;;14.32;8.70;;;2.70;99.90;;;;;;5130235;27;20287;-83
2021/11/19 00:23:25;;;;;;;10.25;8.23;;;2.20;99.90;;;;;;5130320;27;20281;-84
2021/11/19 00:25:52;;;;;;;10.35;8.45;;;;;;;;;;5131485;27;20223;-84
2021/11/19 00:28:20;;;;;;;11.38;7.95;;;2.60;99.90;;;;;;5129932;27;20286;-83
2021/11/19 00:30:47;;;;;;;11.05;8.80;;;2.40;99.90;;;;;;5131216;27;20243;-83
2021/11/19 00:33:15;;;;;;;11.23;7.90;;;2.80;99.90;;;;;;5131082;27;20187;-83
2021/11/19 00:35:45;;;;;;;13.13;8.20;;;2.80;99.90;;;;;;5131027;27;20301;-83
2021/11/19 00:38:13;;;;;;;13.43;9.07;;;3.20;99.90;;;;;;5130623;27;20308;-84
2021/11/19 00:40:44;;;;;;;13.25;9.30;;;2.90;99.90;;;;;;5124873;27;20251;-84
2021/11/19 00:43:12;;;;;;;9.82;8.60;;;3.00;99.90;;;;;;5130796;27;20269;-83
2021/11/19 00:45:39;;;;;;;13.60;9.20;;;3.00;99.90;;;;;;5131136;27;20196;-84
2021/11/19 00:48:08;;;;;;;11.40;8.68;;;2.00;99.90;;;;;;5130039;27;20240;-85
2021/11/19 00:50:38;;;;;;;12.02;7.97;;;2.90;99.90;;;;;;5130503;27;20296;-83
2021/11/19 00:53:06;;;;;;;10.48;8.57;;;2.80;99.90;;;;;;5130901;27;20277;-84
2021/11/19 00:55:33;;;;;;;10.25;8.45;;;2.90;99.90;;;;;;5110721;27;20200;-83
2021/11/19 00:58:02;;;;;;;9.50;8.07;;;;;;;;;;5130060;27;20277;-84
2021/11/19 01:00:32;;;;;;;13.82;10.57;;;3.10;99.90;;;;;;5130175;27;20218;-84
2021/11/19 01:02:59;;;;;;;10.70;8.38;;;3.20;99.90;;;;;;5130032;27;20922;-84
2021/11/19 01:05:26;;;;;;;10.63;9.18;;;3.20;99.90;;;;;;5129136;27;20234;-84
2021/11/19 01:07:53;;;;;;;9.93;8.65;;;;;;;;;;5129032;27;20299;-84
2021/11/19 01:10:24;;;;;;;11.35;8.93;;;3.30;99.90;;;;;;5129808;27;20194;-83
2021/11/19 01:12:52;;;;;;;11.52;9.52;;;;;;;;;;5129318;27;20872;-84
2021/11/19 01:15:23;;;;;;;13.15;9.68;;;3.20;99.90;;;;;;5128644;27;20286;-84
2021/11/19 01:17:54;;;;;;;9.43;7.75;;;3.20;99.90;;;;;;5129892;27;20275;-84
2021/11/19 01:20:25;;;;;;;10.43;9.35;;;3.10;99.90;;;;;;5129146;27;20672;-84
2021/11/19 01:22:54;;;;;;;12.52;8.85;;;3.90;99.90;;;;;;5130176;27;20759;-84
2021/11/19 01:25:25;;;;;;;10.68;8.07;;;3.20;99.90;;;;;;5130887;27;20302;-84
2021/11/19 01:27:52;;;;;;;12.77;9.65;;;2.90;99.90;;;;;;5129476;27;20227;-84
2021/11/19 01:30:25;;;;;;;13.50;9.45;;;3.00;99.90;;;;;;5129306;27;20709;-84
2021/11/19 01:32:52;;;;;;;12.93;8.48;;;2.50;99.90;;;;;;5128089;27;20226;-84
2021/11/19 01:35:19;;;;;;;12.50;8.68;;;;;;;;;;5124533;27;20301;-84
2021/11/19 01:37:46;;;;;;;10.85;8.70;;;2.80;99.90;;;;;;5130032;27;20198;-84
2021/11/19 01:40:16;;;;;;;11.68;9.88;;;4.10;99.90;;;;;;5128606;27;20223;-84
2021/11/19 01:42:45;;;;;;;9.38;8.00;;;2.80;99.90;;;;;;5128940;27;20196;-84
2021/11/19 01:45:16;;;;;;;10.95;8.57;;;2.90;99.90;;;;;;5129442;27;20240;-83
2021/11/19 01:47:47;;;;;;;11.30;7.75;;;2.60;99.90;;;;;;5112708;27;20198;-83
2021/11/19 01:50:22;;;;;;;9.57;8.45;;;2.70;99.90;;;;;;5129078;27;20200;-84
2021/11/19 01:52:52;;;;;;;11.90;8.30;;;3.00;99.90;;;;;;5110630;27;20260;-84
2021/11/19 01:55:22;;;;;;;10.00;7.40;;;2.60;99.90;;;;;;5129850;27;20278;-84
2021/11/19 01:57:52;;;;;;;13.15;8.10;;;2.50;99.90;;;;;;5129152;27;20200;-84
2021/11/19 02:00:23;;;;;;;11.50;9.00;;;2.70;99.90;;;;;;5129835;27;20255;-84
2021/11/19 02:02:57;;;;;;;11.85;7.32;;;2.60;99.90;;;;;;5129407;28;20194;-85
2021/11/19 02:05:28;;;;;;;9.32;7.47;;;2.50;99.90;;;;;;5130191;28;20195;-85
2021/11/19 02:07:58;;;;;;;9.98;8.27;;;2.30;99.90;;;;;;5129069;28;20682;-84
2021/11/19 02:10:35;;;;;;;9.30;8.32;;;2.50;99.90;;;;;;5128523;28;20199;-85
2021/11/19 02:13:07;;;;;;;9.65;8.65;;;2.60;99.90;;;;;;5129422;28;20898;-84
2021/11/19 02:15:40;;;;;;;9.52;7.38;;;3.00;99.90;;;;;;5124991;28;20194;-85
2021/11/19 02:18:12;;;;;;;11.43;7.82;;;2.50;99.90;;;;;;5129149;28;20210;-84
2021/11/19 02:20:44;;;;;;;9.85;7.35;;;2.40;99.90;;;;;;5128819;28;20266;-84
2021/11/19 02:23:14;;;;;;;12.38;8.15;;;2.50;99.90;;;;;;5129285;28;20274;-85
2021/11/19 02:25:44;;;;;;;11.63;9.23;;;2.30;99.90;;;;;;5130171;28;20191;-84
2021/11/19 02:28:15;;;;;;;13.00;7.80;;;2.40;99.90;;;;;;5129050;28;20207;-84
2021/11/19 02:30:51;;;;;;;13.40;8.60;;;2.30;99.90;;;;;;5123383;28;20218;-84
2021/11/19 02:33:20;;;;;;;8.38;7.25;;;;;;;;;;5128473;28;20254;-84
2021/11/19 02:35:51;;;;;;;11.38;8.70;;;2.40;99.90;;;;;;5128883;28;20290;-84
2021/11/19 02:38:21;;;;;;;9.23;8.23;;;2.30;99.90;;;;;;5128598;28;20287;-84
2021/11/19 02:40:50;;;;;;;14.05;8.57;;;2.30;99.90;;;;;;5128634;28;20199;-84
2021/11/19 02:43:23;;;;;;;9.90;8.05;;;1.90;99.90;;;;;;5124432;27;20251;-84
2021/11/19 02:45:52;;;;;;;12.38;8.00;;;2.30;99.90;;;;;;5128290;28;20195;-84
2021/11/19 02:48:24;;;;;;;11.70;7.82;;;2.60;99.90;;;;;;5128395;28;20293;-83
2021/11/19 02:50:52;;;;;;;8.25;6.93;;;2.20;99.90;;;;;;5128861;28;20278;-84
2021/11/19 02:53:19;;;;;;;8.55;7.30;;;2.20;99.90;;;;;;5128973;28;20222;-84
2021/11/19 02:55:49;;;;;;;7.95;6.70;;;0.90;99.90;;;;;;5129014;28;20721;-83
2021/11/19 02:58:20;;;;;;;10.35;8.15;;;3.20;99.90;;;;;;5128874;27;20286;-83
2021/11/19 03:00:56;;;;;;;10.27;7.70;;;2.10;99.90;;;;;;5132507;27;20272;-83
2021/11/19 03:03:25;;;;;;;9.32;7.18;;;;;;;;;;5133176;27;20275;-83
2021/11/19 03:05:52;;;;;;;8.70;7.57;;;2.00;99.90;;;;;;5133014;27;20223;-83
2021/11/19 03:08:20;;;;;;;9.45;7.22;;;;;;;;;;5132324;27;20222;-83
2021/11/19 03:10:54;;;;;;;9.85;8.07;;;2.00;99.90;;;;;;5142925;27;20281;-83
2021/11/19 03:13:23;;;;;;;9.45;7.28;;;2.00;99.90;;;;;;5153830;27;20694;-82
2021/11/19 03:15:53;;;;;;;12.00;8.05;;;2.40;99.90;;;;;;5131795;27;20191;-83
2021/11/19 03:18:21;;;;;;;9.43;7.05;;;2.00;99.90;;;;;;5132239;27;20234;-83
2021/11/19 03:20:53;;;;;;;10.07;7.45;;;2.80;99.90;;;;;;5131648;27;20283;-83
2021/11/19 03:23:21;;;;;;;10.65;7.93;;;1.90;99.90;;;;;;5131286;27;20738;-83
2021/11/19 03:25:50;;;;;;;7.22;6.40;;;1.80;99.90;;;;;;5132042;27;20223;-83
2021/11/19 03:28:21;;;;;;;7.95;7.22;;;2.10;99.90;;;;;;5132659;27;20202;-83
2021/11/19 03:30:50;;;;;;;10.00;8.05;;;1.90;99.90;;;;;;5130516;27;20827;-83
2021/11/19 03:33:19;;;;;;;7.93;7.13;;;2.00;99.90;;;;;;5131437;27;20280;-83
2021/11/19 03:35:49;;;;;;;10.27;7.53;;;1.80;99.90;;;;;;5131429;27;20331;-83
2021/11/19 03:38:16;;;;;;;9.38;7.57;;;;;;;;;;5127426;27;20967;-83
2021/11/19 03:40:46;;;;;;;8.68;7.22;;;1.70;99.90;;;;;;5130598;27;20316;-83
2021/11/19 03:43:15;;;;;;;9.10;6.43;;;2.50;99.90;;;;;;5132607;27;20282;-83
2021/11/19 03:45:49;;;;;;;8.02;6.85;;;1.90;99.90;;;;;;5131941;27;20222;-82
2021/11/19 03:48:17;;;;;;;17.58;8.50;;;1.90;99.90;;;;;;5131627;27;20550;-82
2021/11/19 03:50:48;;;;;;;11.82;8.38;;;1.70;99.90;;;;;;5130824;27;20281;-83
2021/11/19 03:53:18;;;;;;;8.80;7.95;;;1.70;99.90;;;;;;5131830;27;20187;-83
2021/11/19 03:55:49;;;;;;;10.35;8.52;;;3.20;99.90;;;;;;5131672;27;20844;-83
2021/11/19 03:58:18;;;;;;;9.75;7.90;;;1.70;99.90;;;;;;5130924;27;20202;-83
2021/11/19 04:00:49;;;;;;;11.45;8.07;;;1.80;99.90;;;;;;5130675;27;20330;-83
2021/11/19 04:03:18;;;;;;;12.15;7.85;;;1.80;99.90;;;;;;5132526;27;20222;-83
2021/11/19 04:05:46;;;;;;;12.48;8.98;;;1.70;99.90;;;;;;5131447;27;20269;-83
2021/11/19 04:08:13;;;;;;;12.88;8.50;;;;;;;;;;5132200;27;20202;-83
2021/11/19 04:10:42;;;;;;;9.25;7.60;;;1.60;99.90;;;;;;5130652;27;20241;-83
2021/11/19 04:13:10;;;;;;;10.85;7.90;;;1.70;99.90;;;;;;5131150;27;20227;-83
2021/11/19 04:15:42;;;;;;;11.25;7.50;;;2.20;99.90;;;;;;5128865;27;20741;-83
2021/11/19 04:18:10;;;;;;;9.73;7.80;;;2.40;99.90;;;;;;5131092;27;20194;-83
2021/11/19 04:20:37;;;;;;;10.77;8.55;;;;;;;;;;5130362;27;20308;-83
2021/11/19 04:23:05;;;;;;;11.70;8.05;;;;;;;;;;5131652;27;20202;-83
2021/11/19 04:25:33;;;;;;;8.95;7.10;;;;;;;;;;5130900;27;20211;-83
2021/11/19 04:28:02;;;;;;;9.73;7.93;;;;;;;;;;5130510;27;20202;-83
2021/11/19 04:30:34;;;;;;;11.52;7.75;;;1.90;99.90;;;;;;5130596;27;20352;-83
2021/11/19 04:33:01;;;;;;;11.25;7.20;;;2.20;99.90;;;;;;5125533;27;20237;-83
2021/11/19 04:35:30;;;;;;;9.88;7.53;;;2.10;99.90;;;;;;5131095;27;20659;-83
2021/11/19 04:37:58;;;;;;;8.32;7.45;;;1.60;99.90;;;;;;5130951;27;20202;-83
2021/11/19 04:40:25;;;;;;;7.68;6.88;;;1.60;99.90;;;;;;5130456;27;20233;-83
2021/11/19 04:42:52;;;;;;;9.05;7.30;;;;;;;;;;5130330;27;20198;-83
2021/11/19 04:45:24;;;;;;;10.23;7.68;;;1.70;99.90;;;;;;5131121;27;20278;-83
2021/11/19 04:47:51;;;;;;;13.55;8.15;;;1.80;99.90;;;;;;5130915;27;20551;-83
2021/11/19 04:50:21;;;;;;;6.95;6.22;;;1.20;99.90;;;;;;5130182;27;20263;-83
2021/11/19 04:52:48;;;;;;;11.38;7.20;;;;;;;;;;5130279;27;20204;-83
2021/11/19 04:55:16;;;;;;;11.20;7.28;;;1.50;99.90;;;;;;5130671;27;20602;-84
2021/11/19 04:57:44;;;;;;;9.43;7.78;;;1.40;99.90;;;;;;5130141;27;20197;-83
2021/11/19 05:00:14;;;;;;;12.20;8.05;;;2.20;99.90;;;;;;5129627;27;20249;-83
2021/11/19 05:02:43;;;;;;;11.48;8.35;;;;;;;;;;5130303;27;20283;-85
2021/11/19 05:05:10;;;;;;;11.85;9.38;;;1.70;99.90;;;;;;5137304;27;20210;-84
2021/11/19 05:07:38;;;;;;;11.95;8.18;;;;;;;;;;5130511;27;20205;-85
2021/11/19 05:10:06;;;;;;;15.10;9.80;;;1.90;99.90;;;;;;5131025;27;20205;-84
2021/11/19 05:12:39;;;;;;;18.42;10.02;;;1.80;99.90;;;;;;5132101;27;20293;-84
2021/11/19 05:15:08;;;;;;;15.15;10.52;;;1.80;99.90;;;;;;5130988;27;20286;-85
2021/11/19 05:17:35;;;;;;;12.57;9.30;;;;;;;;;;5131157;27;20212;-85
2021/11/19 05:20:04;;;;;;;9.63;8.35;;;;;;;;;;5129435;27;20246;-86
2021/11/19 05:22:31;;;;;;;10.70;8.90;;;1.90;99.90;;;;;;5130087;27;20596;-85
2021/11/19 05:24:58;;;;;;;12.20;8.10;;;;;;;;;;5130526;27;20738;-86
2021/11/19 05:27:26;;;;;;;14.77;9.68;;;;;;;;;;5129835;27;20227;-85
2021/11/19 05:29:53;;;;;;;14.35;9.68;;;;;;;;;;5120927;27;20559;-85
2021/11/19 05:32:24;;;;;;;14.00;8.27;;;;;;;;;;5130270;27;20206;-85
2021/11/19 05:34:51;;;;;;;9.43;8.02;;;;;;;;;;5130306;27;20248;-86
2021/11/19 05:37:22;;;;;;;10.20;7.55;;;;;;;;;;5131296;27;20416;-85
2021/11/19 05:39:52;;;;;;;10.55;8.50;;;;;;;;;;5129945;27;20215;-86
2021/11/19 05:42:19;;;;;;;11.57;9.50;;;;;;;;;;5130593;27;20767;-86
2021/11/19 05:44:46;;;;;;;11.50;8.75;;;;;;;;;;5134963;27;20655;-87
2021/11/19 05:47:13;;;;;;;12.77;9.48;;;2.20;99.90;;;;;;5129525;27;20230;-86
2021/11/19 05:49:41;;;;;;;9.02;8.15;;;;;;;;;;5130160;27;20226;-86
2021/11/19 05:52:10;;;;;;;8.50;7.60;;;2.00;99.90;;;;;;5129140;27;20690;-86
2021/11/19 05:54:40;;;;;;;10.57;8.18;;;1.70;99.90;;;;;;5129777;27;20199;-86
2021/11/19 05:57:13;;;;;;;16.67;9.55;;;1.80;99.90;;;;;;5129555;27;20215;-86
2021/11/19 05:59:40;;;;;;;11.65;7.85;;;1.90;99.90;;;;;;5129640;27;20695;-85
2021/11/19 06:02:09;;;;;;;11.60;8.50;;;1.70;99.90;;;;;;5129978;27;20217;-86
2021/11/19 06:04:36;;;;;;;10.55;8.25;;;;;;;;;;5130016;28;20259;-86
2021/11/19 06:07:04;;;;;;;12.27;8.98;;;;;;;;;;5129880;28;20194;-86
2021/11/19 06:09:31;;;;;;;12.32;9.15;;;;;;;;;;5130364;28;20202;-86
2021/11/19 06:12:04;;;;;;;11.77;8.75;;;1.70;99.90;;;;;;5128862;28;20201;-86
2021/11/19 06:14:35;;;;;;;14.15;9.15;;;1.70;99.90;;;;;;5130954;28;20230;-85
2021/11/19 06:17:09;;;;;;;11.07;8.18;;;1.70;99.90;;;;;;5130644;28;20190;-86
2021/11/19 06:19:39;;;;;;;12.70;8.45;;;1.60;99.90;;;;;;5130534;28;20202;-84
2021/11/19 06:22:11;;;;;;;16.23;9.88;;;1.70;99.90;;;;;;5130441;28;20198;-85
2021/11/19 06:24:40;;;;;;;9.93;8.13;;;1.50;99.90;;;;;;5129312;28;20198;-85
2021/11/19 06:27:14;;;;;;;12.30;8.70;;;1.40;99.90;;;;;;5129182;28;20223;-85
2021/11/19 06:29:41;;;;;;;10.18;7.72;;;;;;;;;;5128249;27;20265;-86
2021/11/19 06:32:10;;;;;;;12.77;10.10;;;1.80;99.90;;;;;;5126181;27;20252;-83
2021/11/19 06:34:45;;;;;;;14.13;8.70;;;;;;;;;;5131084;27;20199;-85
2021/11/19 06:37:12;;;;;;;15.23;9.55;;;;;;;;;;5135711;27;20222;-83
2021/11/19 06:40:16;;;;;;;9.60;8.60;;;1.40;99.90;;;;;;5133959;27;20199;-85
2021/11/19 06:43:03;;;;;;;12.75;8.45;;;;;;;;;;5122695;27;20304;-85
2021/11/19 06:45:32;;;;;;;15.25;10.90;;;1.40;99.90;;;;;;5133744;27;20198;-83
2021/11/19 06:47:59;;;;;;;12.07;9.73;;;;;;;;;;5130098;27;20715;-84
2021/11/19 06:50:29;;;;;;;14.07;10.07;;;1.30;99.90;;;;;;5133368;27;20199;-83
2021/11/19 06:52:56;;;;;;;15.27;10.25;;;1.60;99.90;;;;;;5133302;27;20186;-83
2021/11/19 06:55:23;;;;;;;11.55;9.35;;;1.20;99.90;;;;;;5133119;27;20222;-85
2021/11/19 06:57:50;;;;;;;13.40;9.23;;;;;;;;;;5133633;27;20277;-85
2021/11/19 07:00:22;;;;;;;16.55;9.65;;;1.20;99.90;;;;;;5134649;27;20257;-84
2021/11/19 07:02:50;;;;;;;9.45;8.05;;;1.70;99.90;;;;;;5134209;27;20557;-85
2021/11/19 07:05:17;;;;;;;10.55;8.75;;;1.40;99.90;;;;;;5134602;27;20196;-85
2021/11/19 07:07:47;;;;;;;12.02;9.73;;;;;;;;;;5135053;27;20678;-86
2021/11/19 07:10:16;;;;;;;14.00;9.38;;;0.90;99.90;;;;;;5132568;27;20247;-84
2021/11/19 07:12:43;;;;;;;10.52;8.20;;;1.70;99.90;;;;;;5135401;27;20211;-85
2021/11/19 07:15:13;;;;;;;9.43;7.97;;;1.70;99.90;;;;;;5131644;27;20285;-85
2021/11/19 07:17:42;;;;;;;12.40;9.02;;;;;;;;;;5133719;27;20228;-85
2021/11/19 07:20:11;;;;;;;10.20;8.60;;;1.90;99.90;;;;;;5133429;27;20276;-85
2021/11/19 07:22:38;;;;;;;13.00;9.73;;;;;;;;;;5132791;27;20557;-86
2021/11/19 07:25:07;;;;;;;13.02;9.73;;;2.00;99.90;;;;;;5133350;27;20203;-86
2021/11/19 07:27:35;;;;;;;16.13;9.10;;;;;;;;;;5135938;27;20194;-86
2021/11/19 07:30:02;;;;;;;14.30;9.80;;;;;;;;;;5134594;27;20264;-86
2021/11/19 07:32:29;;;;;;;13.73;10.18;;;2.20;99.90;;;;;;5132523;27;20203;-87
2021/11/19 07:34:58;;;;;;;19.33;10.25;;;;;;;;;;5133507;27;20764;-86
2021/11/19 07:37:25;;;;;;;15.98;11.38;;;;;;;;;;5130057;27;20283;-87
2021/11/19 07:39:52;;;;;;;15.88;10.82;;;;;;;;;;5131144;27;20262;-86
2021/11/19 07:42:20;;;;;;;17.13;11.45;;;2.40;99.90;;;;;;5132449;27;20680;-87
2021/11/19 07:44:47;;;;;;;18.13;11.45;;;;;;;;;;5132598;27;20198;-87
2021/11/19 07:47:15;;;;;;;15.07;12.25;;;;;;;;;;5133205;27;20614;-87
2021/11/19 07:49:42;;;;;;;12.93;10.88;;;;;;;;;;5133808;27;20203;-87
2021/11/19 07:52:11;;;;;;;18.67;11.52;;;;;;;;;;5129969;27;20191;-86
2021/11/19 07:54:38;;;;;;;15.93;10.68;;;;;;;;;;5132658;27;20195;-86
2021/11/19 07:57:05;;;;;;;13.13;10.32;;;2.80;99.90;;;;;;5132856;27;20195;-86
2021/11/19 07:59:35;;;;;;;15.48;11.80;;;;;;;;;;5133264;27;20644;-86
2021/11/19 08:02:05;;;;;;;13.95;10.77;;;;;;;;;;5131105;27;20218;-85
2021/11/19 08:04:34;;;;;;;18.10;12.45;;;2.50;99.90;;;;;;5132001;27;20638;-86
2021/11/19 08:07:02;;;;;;;14.95;11.35;;;3.30;99.90;;;;;;5123864;27;20697;-85
2021/11/19 08:09:30;;;;;;;13.93;10.93;;;;;;;;;;5132126;27;20252;-86
2021/11/19 08:11:58;;;;;;;15.77;11.48;;;3.40;99.90;;;;;;5132388;27;20238;-85
2021/11/19 08:14:25;;;;;;;14.27;10.95;;;;;;;;;;5132913;27;20517;-85
2021/11/19 08:16:54;;;;;;;14.50;12.10;;;3.60;99.90;;;;;;5121278;27;20257;-85
2021/11/19 08:19:24;;;;;;;20.02;12.55;;;3.40;99.90;;;;;;5131871;27;20363;-86
2021/11/19 08:21:52;;;;;;;16.77;11.18;;;3.70;99.90;;;;;;5131880;27;20227;-85
2021/11/19 08:24:20;;;;;;;14.85;11.10;;;3.80;99.90;;;;;;5132412;27;20216;-85
2021/11/19 08:26:51;;;;;;;16.73;11.55;;;3.80;99.90;;;;;;5132347;27;20201;-86
2021/11/19 08:29:21;;;;;;;16.45;12.90;;;4.00;99.90;;;;;;5132364;27;20200;-86
2021/11/19 08:31:48;;;;;;;16.55;12.50;;;4.00;99.90;;;;;;5131156;27;20287;-85
2021/11/19 08:34:16;;;;;;;19.60;11.75;;;;;;;;;;5132559;27;20189;-85
2021/11/19 08:36:44;;;;;;;16.63;12.27;;;4.00;99.90;;;;;;5132498;27;20649;-86
2021/11/19 08:39:17;;;;;;;12.27;11.02;;;4.20;99.90;;;;;;5132076;27;20599;-86
2021/11/19 08:41:48;;;;;;;19.95;11.95;;;6.00;99.90;;;;;;5131506;27;20216;-85
2021/11/19 08:44:16;;;;;;;19.13;11.23;;;;;;;;;;5131918;27;20554;-86
2021/11/19 08:46:47;;;;;;;12.20;10.88;;;4.20;99.90;;;;;;5132001;27;20201;-85
2021/11/19 08:49:16;;;;;;;12.38;10.23;;;4.20;99.90;;;;;;5131728;27;20193;-85
2021/11/19 08:51:45;;;;;;;18.20;11.02;;;;;;;;;;5131533;27;20201;-86
2021/11/19 08:54:14;;;;;;;13.98;9.70;;;4.20;99.90;;;;;;5132069;27;20717;-86
2021/11/19 08:56:44;;;;;;;17.80;11.43;;;4.40;99.90;;;;;;5131953;27;20197;-86
2021/11/19 08:59:14;;;;;;;20.08;11.70;;;4.50;99.90;;;;;;5131320;27;20670;-86
2021/11/19 09:01:44;;;;;;;15.82;11.95;;;4.40;99.90;;;;;;5111226;28;20695;-86
2021/11/19 09:04:13;;;;;;;18.83;13.18;;;4.40;99.90;;;;;;5128446;27;20193;-86
2021/11/19 09:06:41;;;;;;;15.00;11.15;;;4.50;99.90;;;;;;5132017;27;20200;-85
2021/11/19 09:09:09;;;;;;;20.23;13.05;;;4.50;99.90;;;;;;5130300;27;20247;-86
2021/11/19 09:11:37;;;;;;;17.40;12.43;;;;;;;;;;5130789;27;20208;-85
2021/11/19 09:14:04;;;;;;;17.90;11.85;;;4.90;99.90;;;;;;5130965;27;20196;-86
2021/11/19 09:16:37;;;;;;;24.40;13.10;;;4.70;99.90;;;;;;5129741;27;20185;-86
2021/11/19 09:19:14;;;;;;;25.15;12.73;;;4.70;99.90;;;;;;5125696;27;20221;-86
2021/11/19 09:21:47;;;;;;;21.27;12.40;;;5.50;99.90;;;;;;5128025;27;20231;-86
2021/11/19 09:24:20;;;;;;;20.30;11.93;;;4.50;99.90;;;;;;5131772;27;20197;-86
2021/11/19 09:26:52;;;;;;;20.90;12.80;;;4.80;99.90;;;;;;5131413;27;20197;-86
2021/11/19 09:29:22;;;;;;;21.48;12.13;;;5.20;99.90;;;;;;5130963;27;20540;-86
2021/11/19 09:31:52;;;;;;;22.92;12.77;;;5.10;99.90;;;;;;5128888;27;20201;-86
2021/11/19 09:34:20;;;;;;;19.27;10.70;;;4.90;99.90;;;;;;5130299;27;20924;-86
2021/11/19 09:36:47;;;;;;;21.75;10.85;;;;;;;;;;5129573;27;20655;-86
2021/11/19 09:39:16;;;;;;;17.70;12.18;;;5.10;99.90;;;;;;5130950;27;20221;-86
2021/11/19 09:41:50;;;;;;;18.77;12.15;;;5.40;99.90;;;;;;5129874;27;20214;-86
2021/11/19 09:44:59;;;;;;;19.02;10.75;;;5.30;99.90;;;;;;5131189;27;20197;-86
2021/11/19 09:47:50;;;;;;;19.10;11.40;;;5.30;99.90;;;;;;5131452;27;20209;-86
2021/11/19 09:51:19;;;;;;;23.05;11.10;;;5.50;99.90;;;;;;5099599;28;20249;-85
2021/11/19 09:54:26;;;;;;;15.07;9.93;;;5.00;99.90;;;;;;5122383;27;20220;-86
2021/11/19 09:57:11;;;;;;;16.33;9.75;;;5.30;99.90;;;;;;5124610;27;20236;-86
2021/11/19 09:59:43;;;;;;;15.05;11.15;;;5.40;99.90;;;;;;5130893;27;20193;-85
2021/11/19 10:02:29;;;;;;;15.82;10.02;;;5.40;99.90;;;;;;5130503;27;20619;-85
2021/11/19 10:05:28;;;;;;;17.55;11.07;;;5.50;99.90;;;;;;5131266;28;20197;-85
2021/11/19 10:08:05;;;;;;;15.88;10.95;;;5.50;99.90;;;;;;5130252;27;20651;-86
2021/11/19 10:10:39;;;;;;;17.67;10.20;;;5.60;99.90;;;;;;5130498;28;20194;-85
2021/11/19 10:13:19;;;;;;;14.57;11.48;;;5.60;99.90;;;;;;5130476;28;20766;-84
2021/11/19 10:15:51;;;;;;;23.67;11.13;;;5.60;99.90;;;;;;5129793;28;20201;-84
2021/11/19 10:18:27;;;;;;;15.95;11.02;;;5.60;99.90;;;;;;5131062;28;20201;-84
2021/11/19 10:21:04;;;;;;;15.30;10.13;;;5.50;99.90;;;;;;5130697;28;20209;-84
2021/11/19 10:23:36;;;;;;;16.90;10.80;;;8.40;99.90;;;;;;5130845;28;20569;-84
2021/11/19 10:26:06;;;;;;;22.50;12.55;;;6.00;99.90;;;;;;5130872;28;20194;-84
2021/11/19 10:28:38;;;;;;;17.20;11.15;;;5.80;99.90;;;;;;5131392;28;20232;-84
2021/11/19 10:31:06;;;;;;;16.20;11.05;;;5.90;99.90;;;;;;5103976;28;20252;-84
2021/11/19 10:33:37;;;;;;;21.45;10.35;;;5.80;99.90;;;;;;5120911;28;20213;-84
2021/11/19 10:36:18;;;;;;;16.33;11.40;;;5.90;99.90;;;;;;5130749;28;20205;-84
2021/11/19 10:39:18;;;;;;;16.27;9.45;;;5.60;99.90;;;;;;5119814;28;20479;-84
2021/11/19 10:42:13;;;;;;;16.80;11.20;;;5.90;99.90;;;;;;5126223;28;20221;-85
2021/11/19 10:45:13;;;;;;;17.33;10.85;;;5.90;99.90;;;;;;5127567;28;20196;-85
2021/11/19 10:48:19;;;;;;;14.77;10.98;;;5.90;99.90;;;;;;5130051;28;20288;-84
2021/11/19 10:51:25;;;;;;;17.27;11.20;;;5.90;99.90;;;;;;5088182;28;20214;-84
2021/11/19 10:54:38;;;;;;;20.58;9.50;;;5.90;99.90;;;;;;5126406;28;20300;-84
2021/11/19 10:57:18;;;;;;;13.77;10.50;;;6.20;99.90;;;;;;5130186;28;20285;-85
2021/11/19 11:00:07;;;;;;;17.65;11.68;;;6.20;99.90;;;;;;5129923;28;20236;-84
2021/11/19 11:02:37;;;;;;;13.52;9.80;;;6.40;99.90;;;;;;5115258;28;20294;-84
2021/11/19 11:05:25;;;;;;;15.30;11.52;;;6.20;99.90;;;;;;5129979;28;20201;-85
2021/11/19 11:08:14;;;;;;;13.75;11.80;;;6.40;99.90;;;;;;5129239;28;20214;-84
2021/11/19 11:10:48;;;;;;;17.52;11.30;;;6.50;99.90;;;;;;5128919;28;20202;-85
2021/11/19 11:13:30;;;;;;;14.95;11.00;;;7.10;99.90;;;;;;5129702;28;20612;-85
2021/11/19 11:16:01;;;;;;;14.13;10.25;;;6.30;99.90;;;;;;5129185;28;20662;-85
2021/11/19 11:18:31;;;;;;;16.15;10.68;;;6.60;99.90;;;;;;5129481;27;20197;-85
2021/11/19 11:21:21;;;;;;;16.95;12.45;;;6.60;99.90;;;;;;5126711;27;20213;-85
2021/11/19 11:24:11;;;;;;;14.07;11.45;;;6.50;99.90;;;;;;5133967;27;20375;-85
2021/11/19 11:26:44;;;;;;;18.45;11.70;;;6.70;99.90;;;;;;5132890;27;20198;-85
2021/11/19 11:29:36;;;;;;;16.42;11.80;;;6.70;99.90;;;;;;5133858;27;20190;-85
2021/11/19 11:32:13;;;;;;;14.98;10.57;;;6.50;99.90;;;;;;5133129;27;20285;-85
2021/11/19 11:34:59;;;;;;;18.17;11.85;;;6.60;99.90;;;;;;5132967;27;20276;-85
2021/11/19 11:37:35;;;;;;;15.25;11.70;;;7.10;99.90;;;;;;5133704;27;20198;-85
2021/11/19 11:40:07;;;;;;;15.90;12.45;;;6.60;99.90;;;;;;5125856;27;20209;-85
2021/11/19 11:42:37;;;;;;;21.70;12.65;;;6.30;99.90;;;;;;5133865;27;20241;-84
2021/11/19 11:45:23;;;;;;;19.23;11.82;;;6.50;99.90;;;;;;5130940;27;20224;-85
2021/11/19 11:48:05;;;;;;;14.57;11.73;;;6.60;99.90;;;;;;5133174;27;20198;-85
2021/11/19 11:50:39;;;;;;;16.88;12.05;;;6.70;99.90;;;;;;5130692;27;20232;-85
2021/11/19 11:53:11;;;;;;;15.63;11.65;;;7.00;99.90;;;;;;5130717;27;20243;-85
2021/11/19 11:55:41;;;;;;;14.48;11.20;;;7.30;99.90;;;;;;5131782;27;20523;-84
2021/11/19 11:58:16;;;;;;;18.02;11.13;;;7.10;99.90;;;;;;5131988;27;20233;-85
2021/11/19 12:01:00;;;;;;;16.23;10.43;;;7.10;99.90;;;;;;5129277;27;20665;-84
2021/11/19 12:03:37;;;;;;;19.60;11.32;;;7.10;99.90;;;;;;5121570;27;20286;-85
2021/11/19 12:06:10;;;;;;;16.20;11.43;;;7.00;99.90;;;;;;5123305;27;20197;-85
2021/11/19 12:08:57;;;;;;;17.52;10.70;;;7.00;99.90;;;;;;5119570;27;20210;-85
2021/11/19 12:11:57;;;;;;;14.90;10.05;;;7.00;99.90;;;;;;5127026;27;20258;-85
2021/11/19 12:14:34;;;;;;;18.38;10.57;;;7.00;99.90;;;;;;5129178;27;20198;-84
2021/11/19 12:17:12;;;;;;;15.70;11.40;;;7.10;99.90;;;;;;5131918;27;20193;-85
2021/11/19 12:19:43;;;;;;;15.88;12.20;;;7.10;99.90;;;;;;5131898;27;20246;-85
2021/11/19 12:22:16;;;;;;;16.87;10.53;;;7.40;99.90;;;;;;5131058;27;20714;-84
2021/11/19 12:24:48;;;;;;;19.10;11.20;;;7.60;99.90;;;;;;5128401;27;20659;-85
2021/11/19 12:27:34;;;;;;;20.65;12.85;;;7.50;99.90;;;;;;5129707;27;20221;-85
2021/11/19 12:30:15;;;;;;;21.37;13.00;;;7.70;99.90;;;;;;5133459;27;20237;-85
2021/11/19 12:32:46;;;;;;;29.60;13.52;;;7.70;99.90;;;;;;5136409;27;20611;-85
2021/11/19 12:35:27;;;;;;;19.27;12.80;;;7.50;99.90;;;;;;5126186;27;20218;-84
2021/11/19 12:38:05;;;;;;;21.17;13.00;;;;;;;;;;5133034;27;20655;-85
2021/11/19 12:40:50;;;;;;;15.85;12.45;;;7.60;99.90;;;;;;5131204;27;20631;-85
2021/11/19 12:43:25;;;;;;;17.73;12.80;;;;;;;;;;5131886;27;20700;-85
2021/11/19 12:46:08;;;;;;;22.30;14.80;;;7.40;99.90;;;;;;5130904;27;21242;-84
2021/11/19 12:49:16;;;;;;;27.93;13.40;;;7.70;99.90;;;;;;5132098;27;20687;-85
2021/11/19 12:51:52;;;;;;;18.30;12.57;;;;;;;;;;5079543;28;21027;-85
2021/11/19 12:54:39;;;;;;;17.93;12.20;;;7.90;99.90;;;;;;5127057;27;20630;-85
2021/11/19 12:57:48;;;;;;;17.20;12.50;;;7.90;99.90;;;;;;5132131;27;20709;-84
2021/11/19 13:00:21;;;;;;;17.70;12.00;;;;;;;;;;5130974;27;20619;-85
2021/11/19 13:02:53;;;;;;;15.80;10.50;;;7.80;99.90;;;;;;5131605;27;20654;-85
2021/11/19 13:05:26;;;;;;;17.63;11.73;;;;;;;;;;5131346;27;20634;-85
2021/11/19 13:08:00;;;;;;;21.73;12.40;;;7.70;99.90;;;;;;5132304;27;21322;-85
2021/11/19 13:10:46;;;;;;;16.17;12.20;;;7.60;99.90;;;;;;5130700;27;20625;-84
2021/11/19 13:13:36;;;;;;;13.20;11.80;;;7.50;99.90;;;;;;5131995;27;20706;-85
2021/11/19 13:16:33;;;;;;;21.73;10.70;;;7.30;99.90;;;;;;5118507;27;20604;-84
2021/11/19 13:19:01;;;;;;;17.90;12.50;;;;;;;;;;5130173;27;20608;-85
2021/11/19 13:21:47;;;;;;;13.80;11.07;;;;;;;;;;5131211;27;20647;-85
2021/11/19 13:24:47;;;;;;;17.30;11.67;;;7.50;99.90;;;;;;5131007;27;20622;-84
2021/11/19 13:27:52;;;;;;;15.93;10.60;;;7.50;99.90;;;;;;5131542;27;21205;-85
2021/11/19 13:30:49;;;;;;;18.43;11.17;;;7.70;99.90;;;;;;5124113;27;20658;-84
2021/11/19 13:33:23;;;;;;;16.30;9.97;;;;;;;;;;5094918;27;20633;-85
2021/11/19 13:36:32;;;;;;;16.40;10.60;;;7.70;99.90;;;;;;5130559;27;20634;-85